createdAt,value
2018-08-06T00:00:26.414Z,17.93
2018-08-06T00:01:26.366Z,17.88
2018-08-06T00:02:26.356Z,17.82
2018-08-06T00:03:26.344Z,17.94
2018-08-06T00:04:26.332Z,17.78
2018-08-06T00:05:26.350Z,17.78
2018-08-06T00:06:26.344Z,17.80
2018-08-06T00:07:26.296Z,17.80
2018-08-06T00:08:26.282Z,17.79
2018-08-06T00:09:26.274Z,17.79
2018-08-06T00:10:26.267Z,17.84
2018-08-06T00:11:26.292Z,17.76
2018-08-06T00:12:26.234Z,17.72
2018-08-06T00:13:26.230Z,17.79
2018-08-06T00:14:26.220Z,17.72
2018-08-06T00:15:26.206Z,17.72
2018-08-06T00:16:26.230Z,17.75
2018-08-06T00:17:26.184Z,17.78
2018-08-06T00:18:26.175Z,17.69
2018-08-06T00:19:26.164Z,17.68
2018-08-06T00:20:26.151Z,17.71
2018-08-06T00:21:26.172Z,17.69
2018-08-06T00:22:26.130Z,17.59
2018-08-06T00:23:26.112Z,17.68
2018-08-06T00:24:26.110Z,17.59
2018-08-06T00:25:26.090Z,17.66
2018-08-06T00:26:26.124Z,17.59
2018-08-06T00:27:26.074Z,17.66
2018-08-06T00:28:26.097Z,17.54
2018-08-06T00:29:26.070Z,17.57
2018-08-06T00:30:26.026Z,17.60
2018-08-06T00:31:26.053Z,17.53
2018-08-06T00:32:26.002Z,17.56
2018-08-06T00:33:25.993Z,17.60
2018-08-06T00:34:25.989Z,17.59
2018-08-06T00:35:25.986Z,17.53
2018-08-06T00:36:26.010Z,17.60
2018-08-06T00:37:25.951Z,17.50
2018-08-06T00:38:25.939Z,17.54
2018-08-06T00:39:25.934Z,17.47
2018-08-06T00:40:25.921Z,17.41
2018-08-06T00:41:25.943Z,17.44
2018-08-06T00:42:25.897Z,17.41
2018-08-06T00:43:25.881Z,17.42
2018-08-06T00:44:25.869Z,17.31
2018-08-06T00:45:25.924Z,17.41
2018-08-06T00:46:25.876Z,17.42
2018-08-06T00:47:25.837Z,17.34
2018-08-06T00:48:25.853Z,17.35
2018-08-06T00:49:25.815Z,17.34
2018-08-06T00:50:25.801Z,17.35
2018-08-06T00:51:25.791Z,17.35
2018-08-06T00:52:25.783Z,17.37
2018-08-06T00:53:25.801Z,17.35
2018-08-06T00:54:25.759Z,17.28
2018-08-06T00:55:25.747Z,17.22
2018-08-06T00:56:25.769Z,17.30
2018-08-06T00:57:25.725Z,17.20
2018-08-06T00:58:25.715Z,17.14
2018-08-06T00:59:25.739Z,17.13
2018-08-06T01:00:25.699Z,17.27
2018-08-06T01:01:25.686Z,17.16
2018-08-06T01:02:25.722Z,17.20
2018-08-06T01:03:25.663Z,17.23
2018-08-06T01:04:25.686Z,17.14
2018-08-06T01:05:25.642Z,17.17
2018-08-06T01:06:25.629Z,17.19
2018-08-06T01:07:25.623Z,17.19
2018-08-06T01:08:25.640Z,17.19
2018-08-06T01:09:25.640Z,17.17
2018-08-06T01:10:25.594Z,17.20
2018-08-06T01:11:25.572Z,17.23
2018-08-06T01:12:25.570Z,17.14
2018-08-06T01:13:25.553Z,17.23
2018-08-06T01:14:25.578Z,17.19
2018-08-06T01:15:25.530Z,17.16
2018-08-06T01:16:25.521Z,17.16
2018-08-06T01:17:25.507Z,17.14
2018-08-06T01:18:25.532Z,17.17
2018-08-06T01:19:25.482Z,17.09
2018-08-06T01:20:25.472Z,17.10
2018-08-06T01:21:25.456Z,17.12
2018-08-06T01:22:25.453Z,17.13
2018-08-06T01:23:25.467Z,17.13
2018-08-06T01:24:25.428Z,17.13
2018-08-06T01:25:25.456Z,17.19
2018-08-06T01:26:25.403Z,17.14
2018-08-06T01:27:25.396Z,17.14
2018-08-06T01:28:25.380Z,17.13
2018-08-06T01:29:25.376Z,17.13
2018-08-06T01:30:25.390Z,17.10
2018-08-06T01:31:25.352Z,17.09
2018-08-06T01:32:25.325Z,17.09
2018-08-06T01:33:25.316Z,17.10
2018-08-06T01:34:25.309Z,17.07
2018-08-06T01:35:25.319Z,17.09
2018-08-06T01:36:25.317Z,17.07
2018-08-06T01:37:25.277Z,17.01
2018-08-06T01:38:25.266Z,17.01
2018-08-06T01:39:25.247Z,16.99
2018-08-06T01:40:25.271Z,16.99
2018-08-06T01:41:25.236Z,17.05
2018-08-06T01:42:25.214Z,17.01
2018-08-06T01:43:25.213Z,17.04
2018-08-06T01:44:25.224Z,17.09
2018-08-06T01:45:25.187Z,17.10
2018-08-06T01:46:25.173Z,17.10
2018-08-06T01:47:25.160Z,17.05
2018-08-06T01:48:25.153Z,17.14
2018-08-06T01:49:25.165Z,17.17
2018-08-06T01:50:25.129Z,17.17
2018-08-06T01:51:25.123Z,17.23
2018-08-06T01:52:25.102Z,17.17
2018-08-06T01:53:25.124Z,17.17
2018-08-06T01:54:25.074Z,17.22
2018-08-06T01:55:25.116Z,17.20
2018-08-06T01:56:25.063Z,17.20
2018-08-06T01:57:25.043Z,17.32
2018-08-06T01:58:25.041Z,17.32
2018-08-06T01:59:25.025Z,17.35
2018-08-06T02:00:25.057Z,17.38
2018-08-06T02:01:25.002Z,17.32
2018-08-06T02:02:25.012Z,17.34
2018-08-06T02:03:24.987Z,17.37
2018-08-06T02:04:24.978Z,17.35
2018-08-06T02:05:25.008Z,17.31
2018-08-06T02:06:24.953Z,17.41
2018-08-06T02:07:24.949Z,17.39
2018-08-06T02:08:24.931Z,17.47
2018-08-06T02:09:24.918Z,17.35
2018-08-06T02:10:24.941Z,17.39
2018-08-06T02:11:24.901Z,17.50
2018-08-06T02:12:24.886Z,17.49
2018-08-06T02:13:24.877Z,17.54
2018-08-06T02:14:24.871Z,17.50
2018-08-06T02:15:24.883Z,17.53
2018-08-06T02:16:24.874Z,17.49
2018-08-06T02:17:24.832Z,17.52
2018-08-06T02:18:24.822Z,17.50
2018-08-06T02:19:24.813Z,17.46
2018-08-06T02:20:24.798Z,17.49
2018-08-06T02:21:24.814Z,17.47
2018-08-06T02:22:24.777Z,17.47
2018-08-06T02:23:24.763Z,17.49
2018-08-06T02:24:24.749Z,17.57
2018-08-06T02:25:24.796Z,17.47
2018-08-06T02:26:24.770Z,17.49
2018-08-06T02:27:24.717Z,17.49
2018-08-06T02:28:24.713Z,17.49
2018-08-06T02:29:24.689Z,17.54
2018-08-06T02:30:24.686Z,17.52
2018-08-06T02:31:24.728Z,17.59
2018-08-06T02:32:24.669Z,17.60
2018-08-06T02:33:24.649Z,17.52
2018-08-06T02:34:24.647Z,17.57
2018-08-06T02:35:24.617Z,17.65
2018-08-06T02:36:24.651Z,17.63
2018-08-06T02:37:24.602Z,17.59
2018-08-06T02:38:24.589Z,17.71
2018-08-06T02:39:24.582Z,17.63
2018-08-06T02:40:24.563Z,17.59
2018-08-06T02:41:24.597Z,17.54
2018-08-06T02:42:24.537Z,17.56
2018-08-06T02:43:24.534Z,17.52
2018-08-06T02:44:24.519Z,17.59
2018-08-06T02:45:24.503Z,17.59
2018-08-06T02:46:24.541Z,17.54
2018-08-06T02:47:24.483Z,17.50
2018-08-06T02:48:24.474Z,17.54
2018-08-06T02:49:24.455Z,17.50
2018-08-06T02:50:24.461Z,17.42
2018-08-06T02:51:24.481Z,17.41
2018-08-06T02:52:24.447Z,17.42
2018-08-06T02:53:24.474Z,17.32
2018-08-06T02:54:24.411Z,17.39
2018-08-06T02:55:24.400Z,17.41
2018-08-06T02:56:24.400Z,17.30
2018-08-06T02:57:24.423Z,17.39
2018-08-06T02:58:24.372Z,17.35
2018-08-06T02:59:24.359Z,17.42
2018-08-06T03:00:24.344Z,17.34
2018-08-06T03:01:24.343Z,17.31
2018-08-06T03:02:24.351Z,17.34
2018-08-06T03:03:24.315Z,17.38
2018-08-06T03:04:24.297Z,17.38
2018-08-06T03:05:24.291Z,17.42
2018-08-06T03:06:24.267Z,17.46
2018-08-06T03:07:24.289Z,17.44
2018-08-06T03:08:24.283Z,17.39
2018-08-06T03:09:24.233Z,17.38
2018-08-06T03:10:24.227Z,17.44
2018-08-06T03:11:24.221Z,17.44
2018-08-06T03:12:24.203Z,17.38
2018-08-06T03:13:24.222Z,17.35
2018-08-06T03:14:24.177Z,17.39
2018-08-06T03:15:24.197Z,17.35
2018-08-06T03:16:24.158Z,17.31
2018-08-06T03:17:24.151Z,17.37
2018-08-06T03:18:24.169Z,17.35
2018-08-06T03:19:24.125Z,17.34
2018-08-06T03:20:24.117Z,17.39
2018-08-06T03:21:24.150Z,17.38
2018-08-06T03:22:24.100Z,17.35
2018-08-06T03:23:24.113Z,17.37
2018-08-06T03:24:24.068Z,17.34
2018-08-06T03:25:24.059Z,17.37
2018-08-06T03:26:24.048Z,17.46
2018-08-06T03:27:24.068Z,17.39
2018-08-06T03:28:24.053Z,17.39
2018-08-06T03:29:24.010Z,17.41
2018-08-06T03:30:23.999Z,17.42
2018-08-06T03:31:23.991Z,17.46
2018-08-06T03:32:24.027Z,17.37
2018-08-06T03:33:23.970Z,17.42
2018-08-06T03:34:23.965Z,17.42
2018-08-06T03:35:23.953Z,17.41
2018-08-06T03:36:23.927Z,17.35
2018-08-06T03:37:23.963Z,17.41
2018-08-06T03:38:23.916Z,17.39
2018-08-06T03:39:23.911Z,17.39
2018-08-06T03:40:23.902Z,17.38
2018-08-06T03:41:23.890Z,17.49
2018-08-06T03:42:23.910Z,17.38
2018-08-06T03:43:23.863Z,17.39
2018-08-06T03:44:23.856Z,17.41
2018-08-06T03:45:23.877Z,17.41
2018-08-06T03:46:23.829Z,17.44
2018-08-06T03:47:23.817Z,17.42
2018-08-06T03:48:23.805Z,17.41
2018-08-06T03:49:23.803Z,17.50
2018-08-06T03:50:23.816Z,17.52
2018-08-06T03:51:23.776Z,17.50
2018-08-06T03:52:23.761Z,17.57
2018-08-06T03:53:23.745Z,17.41
2018-08-06T03:54:23.739Z,17.53
2018-08-06T03:55:23.764Z,17.52
2018-08-06T03:56:23.746Z,17.44
2018-08-06T03:57:23.699Z,17.52
2018-08-06T03:58:23.736Z,17.56
2018-08-06T03:59:23.682Z,17.60
2018-08-06T04:00:23.672Z,17.59
2018-08-06T04:01:23.664Z,17.60
2018-08-06T04:02:23.643Z,17.60
2018-08-06T04:03:23.676Z,17.59
2018-08-06T04:04:23.621Z,17.66
2018-08-06T04:05:23.615Z,17.63
2018-08-06T04:06:23.601Z,17.59
2018-08-06T04:07:23.595Z,17.71
2018-08-06T04:08:23.616Z,17.66
2018-08-06T04:09:23.593Z,17.69
2018-08-06T04:10:23.551Z,17.76
2018-08-06T04:11:23.539Z,17.78
2018-08-06T04:12:23.527Z,17.68
2018-08-06T04:13:23.518Z,17.75
2018-08-06T04:14:23.541Z,17.76
2018-08-06T04:15:23.495Z,17.78
2018-08-06T04:16:23.479Z,17.73
2018-08-06T04:17:23.481Z,17.79
2018-08-06T04:18:23.465Z,17.69
2018-08-06T04:19:23.481Z,17.75
2018-08-06T04:20:23.445Z,17.66
2018-08-06T04:21:23.421Z,17.76
2018-08-06T04:22:23.415Z,17.71
2018-08-06T04:23:23.398Z,17.69
2018-08-06T04:24:23.466Z,17.68
2018-08-06T04:25:23.377Z,17.72
2018-08-06T04:26:23.369Z,17.73
2018-08-06T04:27:23.357Z,17.69
2018-08-06T04:28:23.345Z,17.75
2018-08-06T04:29:23.375Z,17.78
2018-08-06T04:30:23.333Z,17.84
2018-08-06T04:31:23.316Z,17.76
2018-08-06T04:32:23.313Z,17.87
2018-08-06T04:33:23.327Z,17.80
2018-08-06T04:34:23.280Z,17.79
2018-08-06T04:35:23.272Z,17.80
2018-08-06T04:36:23.251Z,17.80
2018-08-06T04:37:23.249Z,17.79
2018-08-06T04:38:23.317Z,17.79
2018-08-06T04:39:23.219Z,17.80
2018-08-06T04:40:23.228Z,17.76
2018-08-06T04:41:23.240Z,17.79
2018-08-06T04:42:23.194Z,17.82
2018-08-06T04:43:23.190Z,17.79
2018-08-06T04:44:23.172Z,17.88
2018-08-06T04:45:23.158Z,17.94
2018-08-06T04:46:23.196Z,17.97
2018-08-06T04:47:23.144Z,17.93
2018-08-06T04:48:23.132Z,17.94
2018-08-06T04:49:23.122Z,17.93
2018-08-06T04:50:23.104Z,17.95
2018-08-06T04:51:23.133Z,17.95
2018-08-06T04:52:23.085Z,17.98
2018-08-06T04:53:23.075Z,17.93
2018-08-06T04:54:23.061Z,17.95
2018-08-06T04:55:23.059Z,17.88
2018-08-06T04:56:23.061Z,17.93
2018-08-06T04:57:23.051Z,17.90
2018-08-06T04:58:23.007Z,17.98
2018-08-06T04:59:22.999Z,17.91
2018-08-06T05:00:22.991Z,17.93
2018-08-06T05:01:22.972Z,17.88
2018-08-06T05:02:22.993Z,17.94
2018-08-06T05:03:22.957Z,18.06
2018-08-06T05:04:22.939Z,18.06
2018-08-06T05:05:22.935Z,18.06
2018-08-06T05:06:22.921Z,18.08
2018-08-06T05:07:22.933Z,18.03
2018-08-06T05:08:22.895Z,18.05
2018-08-06T05:09:22.884Z,18.03
2018-08-06T05:10:22.873Z,18.06
2018-08-06T05:11:22.860Z,18.00
2018-08-06T05:12:22.885Z,17.95
2018-08-06T05:13:22.849Z,18.00
2018-08-06T05:14:22.838Z,17.84
2018-08-06T05:15:22.828Z,17.84
2018-08-06T05:16:22.810Z,17.80
2018-08-06T05:17:22.832Z,17.80
2018-08-06T05:18:22.796Z,17.76
2018-08-06T05:19:22.785Z,17.73
2018-08-06T05:20:22.769Z,17.80
2018-08-06T05:21:22.759Z,17.79
2018-08-06T05:22:22.776Z,17.84
2018-08-06T05:23:22.734Z,17.97
2018-08-06T05:24:22.721Z,17.91
2018-08-06T05:25:22.713Z,17.86
2018-08-06T05:26:22.697Z,17.94
2018-08-06T05:27:22.719Z,17.90
2018-08-06T05:28:22.675Z,17.90
2018-08-06T05:29:22.663Z,17.82
2018-08-06T05:30:22.657Z,17.80
2018-08-06T05:31:22.779Z,17.82
2018-08-06T05:32:22.659Z,17.97
2018-08-06T05:33:22.623Z,17.82
2018-08-06T05:34:22.609Z,17.82
2018-08-06T05:35:22.605Z,17.78
2018-08-06T05:36:22.589Z,17.78
2018-08-06T05:37:22.601Z,17.97
2018-08-06T05:38:22.563Z,18.02
2018-08-06T05:39:22.561Z,18.05
2018-08-06T05:40:22.539Z,18.16
2018-08-06T05:41:22.533Z,18.19
2018-08-06T05:42:22.548Z,18.23
2018-08-06T05:43:22.544Z,18.24
2018-08-06T05:44:22.489Z,18.36
2018-08-06T05:45:22.478Z,18.34
2018-08-06T05:46:22.468Z,18.34
2018-08-06T05:47:22.454Z,18.31
2018-08-06T05:48:22.505Z,18.36
2018-08-06T05:49:22.438Z,18.45
2018-08-06T05:50:22.417Z,18.41
2018-08-06T05:51:22.417Z,18.42
2018-08-06T05:52:22.415Z,18.42
2018-08-06T05:53:22.414Z,18.46
2018-08-06T05:54:22.385Z,18.57
2018-08-06T05:55:22.363Z,18.60
2018-08-06T05:56:22.359Z,18.60
2018-08-06T05:57:22.381Z,18.60
2018-08-06T05:58:22.381Z,18.63
2018-08-06T05:59:22.319Z,18.68
2018-08-06T06:00:22.305Z,18.74
2018-08-06T06:01:22.297Z,18.73
2018-08-06T06:02:22.315Z,18.86
2018-08-06T06:03:22.377Z,18.83
2018-08-06T06:04:22.298Z,18.78
2018-08-06T06:05:22.257Z,18.76
2018-08-06T06:06:22.243Z,18.63
2018-08-06T06:07:22.235Z,18.64
2018-08-06T06:08:22.217Z,18.70
2018-08-06T06:09:22.243Z,18.70
2018-08-06T06:10:22.193Z,18.73
2018-08-06T06:11:22.183Z,18.73
2018-08-06T06:12:22.177Z,18.73
2018-08-06T06:13:22.165Z,18.82
2018-08-06T06:14:22.187Z,18.89
2018-08-06T06:15:22.153Z,18.92
2018-08-06T06:16:22.141Z,18.89
2018-08-06T06:17:22.127Z,18.92
2018-08-06T06:18:22.121Z,18.86
2018-08-06T06:19:22.134Z,18.94
2018-08-06T06:20:22.094Z,18.94
2018-08-06T06:21:22.085Z,18.92
2018-08-06T06:22:22.066Z,18.98
2018-08-06T06:23:22.065Z,19.08
2018-08-06T06:24:22.086Z,19.12
2018-08-06T06:25:22.060Z,19.05
2018-08-06T06:26:22.028Z,19.07
2018-08-06T06:27:22.012Z,19.27
2018-08-06T06:28:21.998Z,19.23
2018-08-06T06:29:21.987Z,19.34
2018-08-06T06:30:22.008Z,19.39
2018-08-06T06:31:21.979Z,19.42
2018-08-06T06:32:21.953Z,19.64
2018-08-06T06:33:21.946Z,19.62
2018-08-06T06:34:21.941Z,19.57
2018-08-06T06:35:21.954Z,19.71
2018-08-06T06:36:21.913Z,19.64
2018-08-06T06:37:21.896Z,19.72
2018-08-06T06:38:21.899Z,19.70
2018-08-06T06:39:21.872Z,19.75
2018-08-06T06:40:21.898Z,19.87
2018-08-06T06:41:21.853Z,19.96
2018-08-06T06:42:21.848Z,19.97
2018-08-06T06:43:22.142Z,20.03
2018-08-06T06:44:21.827Z,20.18
2018-08-06T06:45:21.829Z,20.26
2018-08-06T06:46:21.803Z,20.18
2018-08-06T06:47:21.782Z,20.24
2018-08-06T06:48:21.763Z,20.30
2018-08-06T06:49:21.757Z,20.37
2018-08-06T06:50:21.764Z,20.40
2018-08-06T06:51:21.725Z,20.32
2018-08-06T06:52:21.729Z,20.50
2018-08-06T06:53:21.713Z,20.64
2018-08-06T06:54:21.742Z,20.71
2018-08-06T06:55:21.713Z,20.78
2018-08-06T06:56:21.689Z,20.88
2018-08-06T06:57:21.661Z,21.14
2018-08-06T06:58:21.679Z,21.15
2018-08-06T06:59:21.643Z,21.15
2018-08-06T07:00:21.625Z,21.63
2018-08-06T07:01:21.643Z,22.28
2018-08-06T07:02:22.161Z,22.30
2018-08-06T07:03:21.637Z,22.67
2018-08-06T07:04:21.604Z,22.21
2018-08-06T07:05:21.586Z,22.14
2018-08-06T07:06:21.623Z,22.06
2018-08-06T07:07:21.565Z,21.99
2018-08-06T07:08:21.589Z,21.92
2018-08-06T07:09:21.538Z,21.92
2018-08-06T07:10:21.522Z,21.97
2018-08-06T07:11:21.543Z,21.83
2018-08-06T07:12:21.563Z,21.94
2018-08-06T07:13:21.492Z,21.91
2018-08-06T07:14:21.482Z,21.92
2018-08-06T07:15:21.471Z,21.91
2018-08-06T07:16:21.498Z,22.06
2018-08-06T07:17:21.448Z,22.22
2018-08-06T07:18:21.429Z,22.16
2018-08-06T07:19:21.452Z,22.88
2018-08-06T07:20:21.464Z,23.52
2018-08-06T07:21:21.395Z,22.95
2018-08-06T07:22:21.427Z,22.84
2018-08-06T07:23:21.367Z,22.83
2018-08-06T07:24:21.363Z,23.23
2018-08-06T07:25:21.355Z,24.06
2018-08-06T07:26:21.340Z,24.59
2018-08-06T07:27:21.357Z,24.88
2018-08-06T07:28:21.324Z,25.21
2018-08-06T07:29:21.313Z,25.33
2018-08-06T07:30:21.329Z,24.59
2018-08-06T07:31:21.284Z,23.92
2018-08-06T07:32:21.269Z,23.56
2018-08-06T07:33:21.262Z,23.14
2018-08-06T07:34:21.251Z,22.86
2018-08-06T07:35:21.259Z,22.70
2018-08-06T07:36:21.234Z,24.09
2018-08-06T07:37:21.214Z,25.18
2018-08-06T07:38:21.236Z,26.19
2018-08-06T07:39:21.209Z,26.67
2018-08-06T07:40:21.185Z,27.19
2018-08-06T07:41:21.185Z,27.63
2018-08-06T07:42:21.157Z,27.94
2018-08-06T07:43:21.179Z,28.23
2018-08-06T07:44:21.138Z,28.27
2018-08-06T07:45:21.129Z,28.15
2018-08-06T07:46:21.111Z,27.37
2018-08-06T07:47:21.104Z,27.40
2018-08-06T07:48:21.151Z,26.97
2018-08-06T07:49:21.112Z,27.29
2018-08-06T07:50:21.083Z,26.98
2018-08-06T07:51:21.068Z,26.86
2018-08-06T07:52:21.059Z,26.26
2018-08-06T07:53:21.079Z,25.55
2018-08-06T07:54:21.033Z,25.21
2018-08-06T07:55:21.033Z,26.29
2018-08-06T07:56:21.010Z,27.00
2018-08-06T07:57:21.005Z,27.41
2018-08-06T07:58:21.038Z,27.04
2018-08-06T07:59:20.986Z,27.08
2018-08-06T08:00:20.972Z,26.42
2018-08-06T08:01:20.953Z,26.08
2018-08-06T08:02:20.951Z,25.62
2018-08-06T08:03:20.967Z,25.24
2018-08-06T08:04:20.955Z,25.09
2018-08-06T08:05:20.911Z,24.84
2018-08-06T08:06:20.954Z,24.66
2018-08-06T08:07:20.894Z,24.44
2018-08-06T08:08:20.877Z,24.25
2018-08-06T08:09:20.913Z,24.18
2018-08-06T08:10:20.862Z,24.14
2018-08-06T08:11:20.849Z,24.29
2018-08-06T08:12:20.839Z,24.43
2018-08-06T08:13:20.829Z,24.59
2018-08-06T08:14:20.893Z,24.71
2018-08-06T08:15:20.807Z,24.68
2018-08-06T08:16:20.883Z,24.25
2018-08-06T08:17:20.789Z,24.01
2018-08-06T08:18:20.764Z,23.73
2018-08-06T08:19:20.827Z,23.69
2018-08-06T08:20:20.928Z,24.10
2018-08-06T08:21:20.728Z,24.43
2018-08-06T08:22:20.719Z,24.65
2018-08-06T08:23:20.704Z,25.07
2018-08-06T08:24:20.732Z,25.39
2018-08-06T08:25:20.688Z,25.48
2018-08-06T08:26:20.672Z,25.36
2018-08-06T08:27:20.664Z,25.40
2018-08-06T08:28:20.652Z,25.25
2018-08-06T08:29:20.679Z,25.19
2018-08-06T08:30:20.665Z,25.11
2018-08-06T08:31:20.617Z,24.93
2018-08-06T08:32:20.606Z,24.84
2018-08-06T08:33:20.600Z,24.79
2018-08-06T08:34:20.616Z,24.71
2018-08-06T08:35:20.612Z,24.71
2018-08-06T08:36:20.570Z,24.62
2018-08-06T08:37:20.588Z,24.66
2018-08-06T08:38:20.540Z,24.85
2018-08-06T08:39:20.525Z,24.96
2018-08-06T08:40:20.554Z,25.09
2018-08-06T08:41:20.517Z,25.06
2018-08-06T08:42:20.520Z,24.61
2018-08-06T08:43:20.490Z,24.25
2018-08-06T08:44:20.470Z,24.04
2018-08-06T08:45:20.503Z,23.99
2018-08-06T08:46:20.483Z,23.82
2018-08-06T08:47:20.439Z,23.71
2018-08-06T08:48:20.430Z,23.70
2018-08-06T08:49:20.417Z,23.67
2018-08-06T08:50:20.415Z,23.59
2018-08-06T08:51:20.423Z,23.48
2018-08-06T08:52:20.409Z,23.49
2018-08-06T08:53:20.385Z,23.45
2018-08-06T08:54:20.371Z,23.40
2018-08-06T08:55:20.366Z,23.45
2018-08-06T08:56:20.389Z,23.52
2018-08-06T08:57:20.344Z,23.47
2018-08-06T08:58:20.337Z,23.44
2018-08-06T08:59:20.313Z,23.36
2018-08-06T09:00:20.309Z,23.34
2018-08-06T09:01:20.344Z,23.42
2018-08-06T09:02:20.288Z,23.48
2018-08-06T09:03:20.274Z,23.44
2018-08-06T09:04:20.261Z,23.47
2018-08-06T09:05:20.257Z,23.52
2018-08-06T09:06:20.282Z,23.47
2018-08-06T09:07:20.248Z,23.40
2018-08-06T09:08:20.216Z,23.42
2018-08-06T09:09:20.217Z,23.36
2018-08-06T09:10:20.201Z,23.49
2018-08-06T09:11:20.220Z,23.47
2018-08-06T09:12:20.244Z,23.59
2018-08-06T09:13:20.186Z,23.51
2018-08-06T09:14:20.150Z,23.39
2018-08-06T09:15:20.144Z,23.48
2018-08-06T09:16:20.130Z,23.49
2018-08-06T09:17:20.143Z,23.47
2018-08-06T09:18:20.108Z,23.51
2018-08-06T09:19:20.093Z,23.59
2018-08-06T09:20:20.088Z,23.69
2018-08-06T09:21:20.176Z,23.85
2018-08-06T09:22:20.093Z,24.04
2018-08-06T09:23:20.050Z,24.22
2018-08-06T09:24:20.033Z,24.29
2018-08-06T09:25:20.027Z,24.46
2018-08-06T09:26:20.217Z,24.47
2018-08-06T09:27:20.025Z,24.71
2018-08-06T09:28:20.014Z,24.84
2018-08-06T09:29:19.977Z,24.96
2018-08-06T09:30:19.968Z,25.24
2018-08-06T09:31:20.051Z,25.25
2018-08-06T09:32:19.949Z,25.22
2018-08-06T09:33:19.978Z,25.30
2018-08-06T09:34:19.939Z,25.59
2018-08-06T09:35:19.925Z,26.07
2018-08-06T09:36:19.903Z,26.04
2018-08-06T09:37:19.912Z,26.42
2018-08-06T09:38:19.876Z,26.46
2018-08-06T09:39:19.866Z,26.15
2018-08-06T09:40:19.875Z,25.88
2018-08-06T09:41:19.844Z,25.62
2018-08-06T09:42:19.929Z,25.44
2018-08-06T09:43:19.823Z,25.30
2018-08-06T09:44:19.817Z,25.15
2018-08-06T09:45:19.798Z,25.15
2018-08-06T09:46:19.795Z,25.12
2018-08-06T09:47:19.804Z,25.12
2018-08-06T09:48:19.760Z,25.11
2018-08-06T09:49:19.790Z,25.11
2018-08-06T09:50:19.822Z,25.11
2018-08-06T09:51:19.740Z,25.24
2018-08-06T09:52:20.000Z,25.49
2018-08-06T09:53:19.835Z,25.62
2018-08-06T09:54:19.931Z,25.67
2018-08-06T09:55:19.831Z,25.51
2018-08-06T09:56:20.218Z,25.61
2018-08-06T09:57:19.671Z,25.68
2018-08-06T09:58:19.749Z,25.77
2018-08-06T09:59:19.685Z,26.10
2018-08-06T10:00:19.638Z,26.31
2018-08-06T10:01:19.636Z,26.98
2018-08-06T10:02:19.657Z,27.57
2018-08-06T10:03:19.617Z,28.47
2018-08-06T10:04:19.607Z,29.05
2018-08-06T10:05:19.588Z,29.76
2018-08-06T10:06:19.846Z,29.92
2018-08-06T10:07:19.599Z,30.01
2018-08-06T10:08:19.559Z,29.86
2018-08-06T10:09:19.545Z,30.44
2018-08-06T10:10:19.544Z,30.86
2018-08-06T10:11:19.597Z,31.33
2018-08-06T10:12:19.511Z,31.62
2018-08-06T10:13:19.503Z,31.92
2018-08-06T10:14:19.487Z,32.29
2018-08-06T10:15:19.491Z,32.61
2018-08-06T10:16:19.515Z,32.90
2018-08-06T10:17:19.465Z,33.04
2018-08-06T10:18:19.461Z,32.34
2018-08-06T10:19:19.506Z,32.00
2018-08-06T10:20:19.435Z,31.82
2018-08-06T10:21:19.484Z,31.85
2018-08-06T10:22:19.409Z,32.08
2018-08-06T10:23:19.411Z,32.57
2018-08-06T10:24:19.399Z,32.85
2018-08-06T10:25:19.384Z,33.28
2018-08-06T10:26:19.395Z,33.45
2018-08-06T10:27:19.345Z,33.73
2018-08-06T10:28:19.340Z,33.57
2018-08-06T10:29:19.320Z,33.40
2018-08-06T10:30:19.426Z,33.57
2018-08-06T10:31:19.327Z,33.40
2018-08-06T10:32:19.298Z,33.17
2018-08-06T10:33:19.288Z,33.38
2018-08-06T10:34:19.275Z,33.33
2018-08-06T10:35:19.262Z,33.36
2018-08-06T10:36:19.284Z,33.61
2018-08-06T10:37:19.243Z,33.75
2018-08-06T10:38:19.237Z,33.39
2018-08-06T10:39:19.244Z,33.65
2018-08-06T10:40:19.217Z,33.73
2018-08-06T10:41:19.241Z,33.85
2018-08-06T10:42:19.191Z,34.18
2018-08-06T10:43:19.187Z,34.46
2018-08-06T10:44:19.183Z,34.55
2018-08-06T10:45:19.187Z,34.93
2018-08-06T10:46:19.187Z,35.15
2018-08-06T10:47:19.181Z,35.49
2018-08-06T10:48:19.195Z,35.76
2018-08-06T10:49:19.132Z,35.56
2018-08-06T10:50:19.117Z,35.50
2018-08-06T10:51:19.141Z,35.63
2018-08-06T10:52:19.100Z,35.76
2018-08-06T10:53:19.100Z,35.82
2018-08-06T10:54:19.083Z,36.06
2018-08-06T10:55:19.066Z,36.22
2018-08-06T10:56:19.096Z,36.22
2018-08-06T10:57:19.048Z,36.44
2018-08-06T10:58:19.062Z,36.09
2018-08-06T10:59:19.046Z,35.86
2018-08-06T11:00:19.047Z,36.03
2018-08-06T11:01:19.353Z,35.88
2018-08-06T11:02:19.174Z,36.01
2018-08-06T11:03:19.273Z,35.97
2018-08-06T11:04:19.178Z,36.20
2018-08-06T11:05:19.152Z,36.13
2018-08-06T11:06:19.313Z,36.08
2018-08-06T11:07:19.189Z,36.35
2018-08-06T11:08:19.215Z,36.53
2018-08-06T11:09:19.107Z,36.65
2018-08-06T11:10:18.961Z,36.33
2018-08-06T11:11:18.963Z,36.53
2018-08-06T11:12:18.913Z,36.76
2018-08-06T11:13:18.909Z,36.91
2018-08-06T11:14:18.973Z,36.92
2018-08-06T11:15:18.876Z,36.66
2018-08-06T11:16:18.874Z,36.44
2018-08-06T11:17:18.858Z,36.48
2018-08-06T11:18:18.862Z,36.81
2018-08-06T11:19:18.883Z,36.66
2018-08-06T11:20:18.839Z,36.97
2018-08-06T11:21:18.841Z,36.97
2018-08-06T11:22:18.859Z,36.96
2018-08-06T11:23:18.813Z,36.85
2018-08-06T11:24:18.803Z,36.78
2018-08-06T11:25:18.786Z,36.91
2018-08-06T11:26:18.779Z,37.01
2018-08-06T11:27:18.843Z,36.89
2018-08-06T11:28:18.767Z,36.91
2018-08-06T11:29:18.747Z,36.97
2018-08-06T11:30:18.754Z,36.97
2018-08-06T11:31:18.743Z,36.92
2018-08-06T11:32:18.769Z,36.92
2018-08-06T11:33:18.725Z,37.06
2018-08-06T11:34:18.708Z,36.92
2018-08-06T11:35:18.701Z,37.01
2018-08-06T11:36:18.694Z,37.11
2018-08-06T11:37:18.727Z,37.34
2018-08-06T11:38:18.677Z,37.45
2018-08-06T11:39:18.673Z,37.72
2018-08-06T11:40:18.673Z,37.45
2018-08-06T11:41:18.642Z,37.45
2018-08-06T11:42:18.691Z,37.72
2018-08-06T11:43:18.657Z,37.73
2018-08-06T11:44:18.652Z,37.75
2018-08-06T11:45:18.621Z,37.76
2018-08-06T11:46:18.613Z,37.75
2018-08-06T11:47:18.589Z,37.61
2018-08-06T11:48:18.662Z,37.78
2018-08-06T11:49:18.589Z,37.75
2018-08-06T11:50:18.575Z,37.73
2018-08-06T11:51:18.549Z,37.95
2018-08-06T11:52:18.546Z,37.98
2018-08-06T11:53:18.558Z,38.12
2018-08-06T11:54:18.525Z,37.91
2018-08-06T11:55:18.517Z,38.09
2018-08-06T11:56:18.510Z,38.35
2018-08-06T11:57:18.507Z,38.50
2018-08-06T11:58:18.587Z,38.91
2018-08-06T11:59:18.491Z,38.91
2018-08-06T12:00:18.471Z,38.76
2018-08-06T12:01:18.463Z,38.51
2018-08-06T12:02:18.446Z,38.05
2018-08-06T12:03:18.456Z,36.69
2018-08-06T12:04:18.426Z,35.20
2018-08-06T12:05:18.418Z,33.82
2018-08-06T12:06:18.408Z,32.35
2018-08-06T12:07:18.398Z,31.18
2018-08-06T12:08:18.414Z,31.13
2018-08-06T12:09:18.383Z,31.20
2018-08-06T12:10:18.374Z,31.47
2018-08-06T12:11:18.353Z,31.66
2018-08-06T12:12:18.351Z,31.89
2018-08-06T12:13:18.362Z,32.05
2018-08-06T12:14:18.338Z,31.81
2018-08-06T12:15:18.417Z,31.85
2018-08-06T12:16:18.313Z,31.72
2018-08-06T12:17:18.306Z,31.69
2018-08-06T12:18:18.320Z,31.37
2018-08-06T12:19:18.289Z,31.25
2018-08-06T12:20:18.379Z,31.17
2018-08-06T12:21:18.266Z,31.26
2018-08-06T12:22:18.252Z,31.37
2018-08-06T12:23:18.311Z,31.39
2018-08-06T12:24:18.237Z,31.41
2018-08-06T12:25:18.228Z,31.36
2018-08-06T12:26:18.284Z,31.52
2018-08-06T12:27:18.243Z,31.73
2018-08-06T12:28:18.239Z,31.89
2018-08-06T12:29:18.204Z,32.23
2018-08-06T12:30:18.182Z,32.46
2018-08-06T12:31:18.163Z,32.41
2018-08-06T12:32:18.165Z,32.30
2018-08-06T12:33:18.293Z,32.20
2018-08-06T12:34:18.145Z,32.08
2018-08-06T12:35:18.145Z,32.08
2018-08-06T12:36:18.132Z,32.09
2018-08-06T12:37:18.118Z,32.19
2018-08-06T12:38:18.245Z,32.31
2018-08-06T12:39:18.101Z,32.45
2018-08-06T12:40:18.095Z,32.68
2018-08-06T12:41:18.085Z,32.98
2018-08-06T12:42:18.074Z,33.13
2018-08-06T12:43:18.093Z,33.20
2018-08-06T12:44:18.055Z,33.32
2018-08-06T12:45:18.040Z,33.38
2018-08-06T12:46:18.104Z,33.44
2018-08-06T12:47:18.019Z,33.53
2018-08-06T12:48:18.055Z,33.61
2018-08-06T12:49:18.008Z,33.66
2018-08-06T12:50:17.995Z,33.28
2018-08-06T12:51:17.985Z,33.10
2018-08-06T12:52:17.975Z,32.93